sensor_id;sensor_type;location;lat;lon;timestamp;temperature;humidity
7212;DHT22;3647;48.792;9.802;2022-08-19T00:00:17;21.70;99.90
7212;DHT22;3647;48.792;9.802;2022-08-19T00:02:45;22.70;99.90
7212;DHT22;3647;48.792;9.802;2022-08-19T00:05:13;21.60;99.90
7212;DHT22;3647;48.792;9.802;2022-08-19T00:07:41;21.60;99.90
7212;DHT22;3647;48.792;9.802;2022-08-19T00:10:11;21.60;99.90
7212;DHT22;3647;48.792;9.802;2022-08-19T00:12:39;21.50;99.90
7212;DHT22;3647;48.792;9.802;2022-08-19T00:15:09;21.50;99.90
7212;DHT22;3647;48.792;9.802;2022-08-19T00:17:40;21.50;99.90
7212;DHT22;3647;48.792;9.802;2022-08-19T00:20:09;21.40;99.90
7212;DHT22;3647;48.792;9.802;2022-08-19T00:22:36;21.50;99.90
7212;DHT22;3647;48.792;9.802;2022-08-19T00:25:04;21.40;99.90
7212;DHT22;3647;48.792;9.802;2022-08-19T00:27:31;21.30;99.90
7212;DHT22;3647;48.792;9.802;2022-08-19T00:29:58;21.40;99.90
7212;DHT22;3647;48.792;9.802;2022-08-19T00:32:27;21.20;99.90
7212;DHT22;3647;48.792;9.802;2022-08-19T00:34:56;21.20;99.90
7212;DHT22;3647;48.792;9.802;2022-08-19T00:37:23;21.10;99.90
7212;DHT22;3647;48.792;9.802;2022-08-19T00:39:52;21.10;99.90
7212;DHT22;3647;48.792;9.802;2022-08-19T00:42:21;21.10;99.90
7212;DHT22;3647;48.792;9.802;2022-08-19T00:44:48;21.10;99.90
7212;DHT22;3647;48.792;9.802;2022-08-19T00:47:16;21.00;99.90
7212;DHT22;3647;48.792;9.802;2022-08-19T00:49:45;21.00;99.90
7212;DHT22;3647;48.792;9.802;2022-08-19T00:52:21;21.00;99.90
7212;DHT22;3647;48.792;9.802;2022-08-19T00:54:49;20.90;99.90
7212;DHT22;3647;48.792;9.802;2022-08-19T00:57:23;20.80;99.90
7212;DHT22;3647;48.792;9.802;2022-08-19T00:59:52;20.80;99.90
7212;DHT22;3647;48.792;9.802;2022-08-19T01:02:21;20.80;99.90
7212;DHT22;3647;48.792;9.802;2022-08-19T01:04:48;20.80;99.90
7212;DHT22;3647;48.792;9.802;2022-08-19T01:07:16;20.70;99.90
7212;DHT22;3647;48.792;9.802;2022-08-19T01:09:44;20.70;99.90
7212;DHT22;3647;48.792;9.802;2022-08-19T01:12:11;20.70;99.90
7212;DHT22;3647;48.792;9.802;2022-08-19T01:14:39;21.50;99.90
7212;DHT22;3647;48.792;9.802;2022-08-19T01:17:07;20.60;99.90
7212;DHT22;3647;48.792;9.802;2022-08-19T01:19:37;20.60;99.90
7212;DHT22;3647;48.792;9.802;2022-08-19T01:22:10;20.60;99.90
7212;DHT22;3647;48.792;9.802;2022-08-19T01:24:40;20.60;99.90
7212;DHT22;3647;48.792;9.802;2022-08-19T01:27:07;20.60;99.90
7212;DHT22;3647;48.792;9.802;2022-08-19T01:29:37;20.50;99.90
7212;DHT22;3647;48.792;9.802;2022-08-19T01:32:06;20.40;99.90
7212;DHT22;3647;48.792;9.802;2022-08-19T01:34:33;20.40;99.90
7212;DHT22;3647;48.792;9.802;2022-08-19T01:37:06;20.40;99.90
7212;DHT22;3647;48.792;9.802;2022-08-19T01:39:34;20.40;99.90
7212;DHT22;3647;48.792;9.802;2022-08-19T01:42:02;20.40;99.90
7212;DHT22;3647;48.792;9.802;2022-08-19T01:44:30;20.30;99.90
7212;DHT22;3647;48.792;9.802;2022-08-19T01:46:57;20.40;99.90
7212;DHT22;3647;48.792;9.802;2022-08-19T01:49:25;20.30;99.90
7212;DHT22;3647;48.792;9.802;2022-08-19T01:51:53;20.30;99.90
7212;DHT22;3647;48.792;9.802;2022-08-19T01:54:22;20.20;99.90
7212;DHT22;3647;48.792;9.802;2022-08-19T01:56:50;20.20;99.90
7212;DHT22;3647;48.792;9.802;2022-08-19T01:59:21;21.80;99.90
7212;DHT22;3647;48.792;9.802;2022-08-19T02:01:49;20.20;99.90
7212;DHT22;3647;48.792;9.802;2022-08-19T02:04:16;20.20;99.90
7212;DHT22;3647;48.792;9.802;2022-08-19T02:06:43;20.20;99.90
7212;DHT22;3647;48.792;9.802;2022-08-19T02:09:10;20.20;99.90
7212;DHT22;3647;48.792;9.802;2022-08-19T02:11:37;20.20;99.90
7212;DHT22;3647;48.792;9.802;2022-08-19T02:14:06;20.20;99.90
7212;DHT22;3647;48.792;9.802;2022-08-19T02:16:35;20.20;99.90
7212;DHT22;3647;48.792;9.802;2022-08-19T02:19:04;20.20;99.90
7212;DHT22;3647;48.792;9.802;2022-08-19T02:21:31;20.20;99.90
7212;DHT22;3647;48.792;9.802;2022-08-19T02:23:58;20.20;99.90
7212;DHT22;3647;48.792;9.802;2022-08-19T02:26:26;20.20;99.90
7212;DHT22;3647;48.792;9.802;2022-08-19T02:28:54;20.30;99.90
7212;DHT22;3647;48.792;9.802;2022-08-19T02:31:23;20.20;99.90
7212;DHT22;3647;48.792;9.802;2022-08-19T02:33:52;20.30;99.90
7212;DHT22;3647;48.792;9.802;2022-08-19T02:36:19;20.10;99.90
7212;DHT22;3647;48.792;9.802;2022-08-19T02:38:46;20.30;99.90
7212;DHT22;3647;48.792;9.802;2022-08-19T02:41:15;20.20;99.90
7212;DHT22;3647;48.792;9.802;2022-08-19T02:43:43;20.20;99.90
7212;DHT22;3647;48.792;9.802;2022-08-19T02:46:14;20.90;99.90
7212;DHT22;3647;48.792;9.802;2022-08-19T02:48:46;20.10;99.90
7212;DHT22;3647;48.792;9.802;2022-08-19T02:51:18;20.10;99.90
7212;DHT22;3647;48.792;9.802;2022-08-19T02:53:45;20.20;99.90
7212;DHT22;3647;48.792;9.802;2022-08-19T02:56:12;20.20;99.90
7212;DHT22;3647;48.792;9.802;2022-08-19T02:58:40;20.20;99.90
7212;DHT22;3647;48.792;9.802;2022-08-19T03:01:08;20.20;99.90
7212;DHT22;3647;48.792;9.802;2022-08-19T03:03:36;20.20;99.90
7212;DHT22;3647;48.792;9.802;2022-08-19T03:06:05;20.20;99.90
7212;DHT22;3647;48.792;9.802;2022-08-19T03:08:34;20.10;99.90
7212;DHT22;3647;48.792;9.802;2022-08-19T03:11:02;20.10;99.90
7212;DHT22;3647;48.792;9.802;2022-08-19T03:13:29;20.00;99.90
7212;DHT22;3647;48.792;9.802;2022-08-19T03:15:56;20.00;99.90
7212;DHT22;3647;48.792;9.802;2022-08-19T03:18:23;19.90;99.90
7212;DHT22;3647;48.792;9.802;2022-08-19T03:20:51;19.90;99.90
7212;DHT22;3647;48.792;9.802;2022-08-19T03:23:20;20.00;99.90
7212;DHT22;3647;48.792;9.802;2022-08-19T03:25:51;20.00;99.90
7212;DHT22;3647;48.792;9.802;2022-08-19T03:28:19;20.00;99.90
7212;DHT22;3647;48.792;9.802;2022-08-19T03:30:55;20.00;99.90
7212;DHT22;3647;48.792;9.802;2022-08-19T03:33:23;19.90;99.90
7212;DHT22;3647;48.792;9.802;2022-08-19T03:36:00;19.80;99.90
7212;DHT22;3647;48.792;9.802;2022-08-19T03:38:27;19.80;99.90
7212;DHT22;3647;48.792;9.802;2022-08-19T03:40:56;19.80;99.90
7212;DHT22;3647;48.792;9.802;2022-08-19T03:43:23;19.70;99.90
7212;DHT22;3647;48.792;9.802;2022-08-19T03:46:00;19.70;99.90
7212;DHT22;3647;48.792;9.802;2022-08-19T03:48:29;19.70;99.90
7212;DHT22;3647;48.792;9.802;2022-08-19T03:50:56;19.70;99.90
7212;DHT22;3647;48.792;9.802;2022-08-19T03:53:24;19.70;99.90
7212;DHT22;3647;48.792;9.802;2022-08-19T03:55:52;19.70;99.90
7212;DHT22;3647;48.792;9.802;2022-08-19T03:58:21;19.70;99.90
7212;DHT22;3647;48.792;9.802;2022-08-19T04:00:49;19.70;99.90
7212;DHT22;3647;48.792;9.802;2022-08-19T04:03:15;19.70;99.90
7212;DHT22;3647;48.792;9.802;2022-08-19T04:05:44;19.70;99.90
7212;DHT22;3647;48.792;9.802;2022-08-19T04:08:12;19.70;99.90
7212;DHT22;3647;48.792;9.802;2022-08-19T04:10:41;19.70;99.90
7212;DHT22;3647;48.792;9.802;2022-08-19T04:13:08;19.70;99.90
7212;DHT22;3647;48.792;9.802;2022-08-19T04:15:40;19.70;99.90
7212;DHT22;3647;48.792;9.802;2022-08-19T04:18:08;19.80;99.90
7212;DHT22;3647;48.792;9.802;2022-08-19T04:20:42;19.80;99.90
7212;DHT22;3647;48.792;9.802;2022-08-19T04:23:10;21.20;99.90
7212;DHT22;3647;48.792;9.802;2022-08-19T04:25:38;19.80;99.90
7212;DHT22;3647;48.792;9.802;2022-08-19T04:28:06;19.80;99.90
7212;DHT22;3647;48.792;9.802;2022-08-19T04:30:41;19.80;99.90
7212;DHT22;3647;48.792;9.802;2022-08-19T04:33:08;19.90;99.90
7212;DHT22;3647;48.792;9.802;2022-08-19T04:35:37;19.90;99.90
7212;DHT22;3647;48.792;9.802;2022-08-19T04:38:04;19.90;99.90
7212;DHT22;3647;48.792;9.802;2022-08-19T04:40:32;19.90;99.90
7212;DHT22;3647;48.792;9.802;2022-08-19T04:43:16;19.90;99.90
7212;DHT22;3647;48.792;9.802;2022-08-19T04:45:45;20.00;99.90
7212;DHT22;3647;48.792;9.802;2022-08-19T04:48:12;20.00;99.90
7212;DHT22;3647;48.792;9.802;2022-08-19T04:50:41;20.60;99.90
7212;DHT22;3647;48.792;9.802;2022-08-19T04:53:08;20.10;99.90
7212;DHT22;3647;48.792;9.802;2022-08-19T04:55:39;22.10;99.90
7212;DHT22;3647;48.792;9.802;2022-08-19T04:58:06;20.00;99.90
7212;DHT22;3647;48.792;9.802;2022-08-19T05:00:33;20.10;99.90
7212;DHT22;3647;48.792;9.802;2022-08-19T05:03:01;20.20;99.90
7212;DHT22;3647;48.792;9.802;2022-08-19T05:05:28;20.20;99.90
7212;DHT22;3647;48.792;9.802;2022-08-19T05:07:57;20.30;99.90
7212;DHT22;3647;48.792;9.802;2022-08-19T05:10:24;20.30;99.90
7212;DHT22;3647;48.792;9.802;2022-08-19T05:12:51;20.30;99.90
7212;DHT22;3647;48.792;9.802;2022-08-19T05:15:18;20.30;99.90
7212;DHT22;3647;48.792;9.802;2022-08-19T05:17:45;20.10;99.90
7212;DHT22;3647;48.792;9.802;2022-08-19T05:20:27;20.00;99.90
7212;DHT22;3647;48.792;9.802;2022-08-19T05:23:12;20.00;99.90
7212;DHT22;3647;48.792;9.802;2022-08-19T05:25:41;20.00;99.90
7212;DHT22;3647;48.792;9.802;2022-08-19T05:28:07;20.10;99.90
7212;DHT22;3647;48.792;9.802;2022-08-19T05:30:34;20.20;99.90
7212;DHT22;3647;48.792;9.802;2022-08-19T05:33:01;20.00;99.90
7212;DHT22;3647;48.792;9.802;2022-08-19T05:35:30;20.00;99.90
7212;DHT22;3647;48.792;9.802;2022-08-19T05:37:57;20.10;99.90
7212;DHT22;3647;48.792;9.802;2022-08-19T05:40:24;20.10;99.90
7212;DHT22;3647;48.792;9.802;2022-08-19T05:42:51;20.10;99.90
7212;DHT22;3647;48.792;9.802;2022-08-19T05:45:19;20.10;99.90
7212;DHT22;3647;48.792;9.802;2022-08-19T05:47:47;20.20;99.90
7212;DHT22;3647;48.792;9.802;2022-08-19T05:50:14;20.30;99.90
7212;DHT22;3647;48.792;9.802;2022-08-19T05:52:44;20.30;99.90
7212;DHT22;3647;48.792;9.802;2022-08-19T05:55:11;20.50;99.90
7212;DHT22;3647;48.792;9.802;2022-08-19T05:57:38;20.50;99.90
7212;DHT22;3647;48.792;9.802;2022-08-19T06:00:07;20.50;99.90
7212;DHT22;3647;48.792;9.802;2022-08-19T06:02:36;20.50;99.90
7212;DHT22;3647;48.792;9.802;2022-08-19T06:05:04;20.50;99.90
7212;DHT22;3647;48.792;9.802;2022-08-19T06:07:35;20.60;99.90
7212;DHT22;3647;48.792;9.802;2022-08-19T06:10:04;20.60;99.90
7212;DHT22;3647;48.792;9.802;2022-08-19T06:12:32;20.60;99.90
7212;DHT22;3647;48.792;9.802;2022-08-19T06:15:00;20.60;99.90
7212;DHT22;3647;48.792;9.802;2022-08-19T06:17:28;20.60;99.90
7212;DHT22;3647;48.792;9.802;2022-08-19T06:19:55;20.60;99.90
7212;DHT22;3647;48.792;9.802;2022-08-19T06:22:24;21.50;99.90
7212;DHT22;3647;48.792;9.802;2022-08-19T06:24:51;20.50;99.90
7212;DHT22;3647;48.792;9.802;2022-08-19T06:27:21;20.50;99.90
7212;DHT22;3647;48.792;9.802;2022-08-19T06:29:48;21.40;99.90
7212;DHT22;3647;48.792;9.802;2022-08-19T06:32:16;20.50;99.90
7212;DHT22;3647;48.792;9.802;2022-08-19T06:34:43;20.50;99.90
7212;DHT22;3647;48.792;9.802;2022-08-19T06:37:11;20.50;99.90
7212;DHT22;3647;48.792;9.802;2022-08-19T06:39:40;20.50;99.90
7212;DHT22;3647;48.792;9.802;2022-08-19T06:42:08;20.40;99.90
7212;DHT22;3647;48.792;9.802;2022-08-19T06:44:40;20.30;99.90
7212;DHT22;3647;48.792;9.802;2022-08-19T06:47:09;20.20;99.90
7212;DHT22;3647;48.792;9.802;2022-08-19T06:49:36;20.30;99.90
7212;DHT22;3647;48.792;9.802;2022-08-19T06:52:04;20.20;99.90
7212;DHT22;3647;48.792;9.802;2022-08-19T06:54:32;20.30;99.90
7212;DHT22;3647;48.792;9.802;2022-08-19T06:56:59;20.20;99.90
7212;DHT22;3647;48.792;9.802;2022-08-19T06:59:28;20.20;99.90
7212;DHT22;3647;48.792;9.802;2022-08-19T07:02:00;20.20;99.90
7212;DHT22;3647;48.792;9.802;2022-08-19T07:04:29;20.20;99.90
7212;DHT22;3647;48.792;9.802;2022-08-19T07:06:58;20.20;99.90
7212;DHT22;3647;48.792;9.802;2022-08-19T07:09:26;20.20;99.90
7212;DHT22;3647;48.792;9.802;2022-08-19T07:11:54;20.10;99.90
7212;DHT22;3647;48.792;9.802;2022-08-19T07:14:23;20.10;99.90
7212;DHT22;3647;48.792;9.802;2022-08-19T07:16:52;20.10;99.90
7212;DHT22;3647;48.792;9.802;2022-08-19T07:19:23;21.30;99.90
7212;DHT22;3647;48.792;9.802;2022-08-19T07:21:51;20.10;99.90
7212;DHT22;3647;48.792;9.802;2022-08-19T07:24:19;20.00;99.90
7212;DHT22;3647;48.792;9.802;2022-08-19T07:26:49;20.00;99.90
7212;DHT22;3647;48.792;9.802;2022-08-19T07:29:16;20.10;99.90
7212;DHT22;3647;48.792;9.802;2022-08-19T07:31:44;20.00;99.90
7212;DHT22;3647;48.792;9.802;2022-08-19T07:34:12;19.90;99.90
7212;DHT22;3647;48.792;9.802;2022-08-19T07:36:42;19.90;99.90
7212;DHT22;3647;48.792;9.802;2022-08-19T07:39:12;19.90;99.90
7212;DHT22;3647;48.792;9.802;2022-08-19T07:41:39;19.90;99.90
7212;DHT22;3647;48.792;9.802;2022-08-19T07:44:08;20.10;99.90
7212;DHT22;3647;48.792;9.802;2022-08-19T07:46:38;19.90;99.90
7212;DHT22;3647;48.792;9.802;2022-08-19T07:49:06;19.90;99.90
7212;DHT22;3647;48.792;9.802;2022-08-19T07:51:34;19.90;99.90
7212;DHT22;3647;48.792;9.802;2022-08-19T07:54:03;19.90;99.90
7212;DHT22;3647;48.792;9.802;2022-08-19T07:56:30;20.00;99.90
7212;DHT22;3647;48.792;9.802;2022-08-19T07:58:57;20.00;99.90
7212;DHT22;3647;48.792;9.802;2022-08-19T08:01:26;20.00;99.90
7212;DHT22;3647;48.792;9.802;2022-08-19T08:03:55;19.90;99.90
7212;DHT22;3647;48.792;9.802;2022-08-19T08:06:40;19.90;99.90
7212;DHT22;3647;48.792;9.802;2022-08-19T08:09:29;19.80;99.90
7212;DHT22;3647;48.792;9.802;2022-08-19T08:11:58;19.90;99.90
7212;DHT22;3647;48.792;9.802;2022-08-19T08:14:30;21.90;99.90
7212;DHT22;3647;48.792;9.802;2022-08-19T08:16:58;19.90;99.90
7212;DHT22;3647;48.792;9.802;2022-08-19T08:19:27;20.00;99.90
7212;DHT22;3647;48.792;9.802;2022-08-19T08:21:56;20.10;99.90
7212;DHT22;3647;48.792;9.802;2022-08-19T08:24:26;21.70;99.90
7212;DHT22;3647;48.792;9.802;2022-08-19T08:26:53;20.10;99.90
7212;DHT22;3647;48.792;9.802;2022-08-19T08:29:20;20.10;99.90
7212;DHT22;3647;48.792;9.802;2022-08-19T08:31:47;20.20;99.90
7212;DHT22;3647;48.792;9.802;2022-08-19T08:34:14;20.10;99.90
7212;DHT22;3647;48.792;9.802;2022-08-19T08:36:43;20.10;99.90
7212;DHT22;3647;48.792;9.802;2022-08-19T08:39:11;20.10;99.90
7212;DHT22;3647;48.792;9.802;2022-08-19T08:41:47;20.10;99.90
7212;DHT22;3647;48.792;9.802;2022-08-19T08:44:22;20.20;99.90
7212;DHT22;3647;48.792;9.802;2022-08-19T08:46:52;20.20;99.90
7212;DHT22;3647;48.792;9.802;2022-08-19T08:49:29;20.20;99.90
7212;DHT22;3647;48.792;9.802;2022-08-19T08:52:03;20.20;99.90
7212;DHT22;3647;48.792;9.802;2022-08-19T08:54:35;20.20;99.90
7212;DHT22;3647;48.792;9.802;2022-08-19T08:57:09;20.20;99.90
7212;DHT22;3647;48.792;9.802;2022-08-19T08:59:39;20.10;99.90
7212;DHT22;3647;48.792;9.802;2022-08-19T09:02:07;20.10;99.90
7212;DHT22;3647;48.792;9.802;2022-08-19T09:04:35;20.20;99.90
7212;DHT22;3647;48.792;9.802;2022-08-19T09:07:17;20.20;99.90
7212;DHT22;3647;48.792;9.802;2022-08-19T09:09:48;20.20;99.90
7212;DHT22;3647;48.792;9.802;2022-08-19T09:12:23;20.30;99.90
7212;DHT22;3647;48.792;9.802;2022-08-19T09:14:56;20.30;99.90
7212;DHT22;3647;48.792;9.802;2022-08-19T09:17:26;20.40;99.90
7212;DHT22;3647;48.792;9.802;2022-08-19T09:19:58;20.50;99.90
7212;DHT22;3647;48.792;9.802;2022-08-19T09:22:26;20.50;99.90
7212;DHT22;3647;48.792;9.802;2022-08-19T09:24:54;20.30;99.90
7212;DHT22;3647;48.792;9.802;2022-08-19T09:27:24;20.70;99.90
7212;DHT22;3647;48.792;9.802;2022-08-19T09:29:51;20.70;99.90
7212;DHT22;3647;48.792;9.802;2022-08-19T09:32:19;20.70;99.90
7212;DHT22;3647;48.792;9.802;2022-08-19T09:34:46;20.80;99.90
7212;DHT22;3647;48.792;9.802;2022-08-19T09:37:13;20.90;99.90
7212;DHT22;3647;48.792;9.802;2022-08-19T09:39:42;20.90;99.90
7212;DHT22;3647;48.792;9.802;2022-08-19T09:42:09;20.90;99.90
7212;DHT22;3647;48.792;9.802;2022-08-19T09:44:39;21.10;99.90
7212;DHT22;3647;48.792;9.802;2022-08-19T09:47:07;20.90;99.90
7212;DHT22;3647;48.792;9.802;2022-08-19T09:49:34;21.00;99.90
7212;DHT22;3647;48.792;9.802;2022-08-19T09:52:01;21.10;99.90
7212;DHT22;3647;48.792;9.802;2022-08-19T09:54:28;21.00;99.90
7212;DHT22;3647;48.792;9.802;2022-08-19T09:56:57;21.10;99.90
7212;DHT22;3647;48.792;9.802;2022-08-19T09:59:25;21.10;99.90
7212;DHT22;3647;48.792;9.802;2022-08-19T10:01:54;21.10;99.90
7212;DHT22;3647;48.792;9.802;2022-08-19T10:04:21;21.00;99.90
7212;DHT22;3647;48.792;9.802;2022-08-19T10:06:50;21.10;99.90
7212;DHT22;3647;48.792;9.802;2022-08-19T10:09:17;21.20;99.90
7212;DHT22;3647;48.792;9.802;2022-08-19T10:11:45;21.30;99.90
7212;DHT22;3647;48.792;9.802;2022-08-19T10:14:15;23.10;99.90
7212;DHT22;3647;48.792;9.802;2022-08-19T10:16:42;21.30;99.90
7212;DHT22;3647;48.792;9.802;2022-08-19T10:19:11;21.30;99.90
7212;DHT22;3647;48.792;9.802;2022-08-19T10:21:37;21.20;99.90
7212;DHT22;3647;48.792;9.802;2022-08-19T10:24:06;21.20;99.90
7212;DHT22;3647;48.792;9.802;2022-08-19T10:26:35;21.20;99.90
7212;DHT22;3647;48.792;9.802;2022-08-19T10:29:04;22.00;99.90
7212;DHT22;3647;48.792;9.802;2022-08-19T10:31:33;21.10;99.90
7212;DHT22;3647;48.792;9.802;2022-08-19T10:34:00;21.10;99.90
7212;DHT22;3647;48.792;9.802;2022-08-19T10:36:31;21.00;99.90
7212;DHT22;3647;48.792;9.802;2022-08-19T10:38:59;21.00;99.90
7212;DHT22;3647;48.792;9.802;2022-08-19T10:41:29;21.00;99.90
7212;DHT22;3647;48.792;9.802;2022-08-19T10:43:58;21.90;99.90
7212;DHT22;3647;48.792;9.802;2022-08-19T10:46:27;21.60;99.90
7212;DHT22;3647;48.792;9.802;2022-08-19T10:48:57;22.70;99.90
7212;DHT22;3647;48.792;9.802;2022-08-19T10:51:23;20.90;99.90
7212;DHT22;3647;48.792;9.802;2022-08-19T10:54:10;20.90;99.90
7212;DHT22;3647;48.792;9.802;2022-08-19T10:56:37;21.00;99.90
7212;DHT22;3647;48.792;9.802;2022-08-19T10:59:20;20.80;99.90
7212;DHT22;3647;48.792;9.802;2022-08-19T11:01:47;20.80;99.90
7212;DHT22;3647;48.792;9.802;2022-08-19T11:04:16;20.70;99.90
7212;DHT22;3647;48.792;9.802;2022-08-19T11:06:44;20.70;99.90
7212;DHT22;3647;48.792;9.802;2022-08-19T11:09:14;20.80;99.90
7212;DHT22;3647;48.792;9.802;2022-08-19T11:11:42;20.90;99.90
7212;DHT22;3647;48.792;9.802;2022-08-19T11:14:11;20.90;99.90
7212;DHT22;3647;48.792;9.802;2022-08-19T11:16:40;21.00;99.90
7212;DHT22;3647;48.792;9.802;2022-08-19T11:19:08;21.10;99.90
7212;DHT22;3647;48.792;9.802;2022-08-19T11:21:37;21.20;99.90
7212;DHT22;3647;48.792;9.802;2022-08-19T11:24:08;21.20;99.90
7212;DHT22;3647;48.792;9.802;2022-08-19T11:26:38;21.10;99.90
7212;DHT22;3647;48.792;9.802;2022-08-19T11:29:07;21.00;99.90
7212;DHT22;3647;48.792;9.802;2022-08-19T11:31:37;20.90;99.90
7212;DHT22;3647;48.792;9.802;2022-08-19T11:34:10;20.90;99.90
7212;DHT22;3647;48.792;9.802;2022-08-19T11:36:39;20.70;99.90
7212;DHT22;3647;48.792;9.802;2022-08-19T11:39:08;20.60;99.90
7212;DHT22;3647;48.792;9.802;2022-08-19T11:41:37;20.50;99.90
7212;DHT22;3647;48.792;9.802;2022-08-19T11:44:04;20.40;99.90
7212;DHT22;3647;48.792;9.802;2022-08-19T11:46:32;20.30;99.90
7212;DHT22;3647;48.792;9.802;2022-08-19T11:48:59;20.40;99.90
7212;DHT22;3647;48.792;9.802;2022-08-19T11:51:29;20.50;99.90
7212;DHT22;3647;48.792;9.802;2022-08-19T11:53:57;20.40;99.90
7212;DHT22;3647;48.792;9.802;2022-08-19T11:56:25;20.40;99.90
7212;DHT22;3647;48.792;9.802;2022-08-19T11:58:54;20.30;99.90
7212;DHT22;3647;48.792;9.802;2022-08-19T12:01:24;20.20;99.90
7212;DHT22;3647;48.792;9.802;2022-08-19T12:03:53;20.20;99.90
7212;DHT22;3647;48.792;9.802;2022-08-19T12:06:23;20.20;99.90
7212;DHT22;3647;48.792;9.802;2022-08-19T12:08:54;20.20;99.90
7212;DHT22;3647;48.792;9.802;2022-08-19T12:11:21;20.10;99.90
7212;DHT22;3647;48.792;9.802;2022-08-19T12:13:48;20.00;99.90
7212;DHT22;3647;48.792;9.802;2022-08-19T12:16:22;20.00;99.90
7212;DHT22;3647;48.792;9.802;2022-08-19T12:18:50;20.00;99.90
7212;DHT22;3647;48.792;9.802;2022-08-19T12:21:19;20.00;99.90
7212;DHT22;3647;48.792;9.802;2022-08-19T12:23:47;20.10;99.90
7212;DHT22;3647;48.792;9.802;2022-08-19T12:26:15;20.10;99.90
7212;DHT22;3647;48.792;9.802;2022-08-19T12:28:43;20.20;99.90
7212;DHT22;3647;48.792;9.802;2022-08-19T12:31:10;20.10;99.90
7212;DHT22;3647;48.792;9.802;2022-08-19T12:33:39;20.10;99.90
7212;DHT22;3647;48.792;9.802;2022-08-19T12:36:10;20.10;99.90
7212;DHT22;3647;48.792;9.802;2022-08-19T12:38:38;20.10;99.90
7212;DHT22;3647;48.792;9.802;2022-08-19T12:41:06;20.10;99.90
7212;DHT22;3647;48.792;9.802;2022-08-19T12:43:34;20.40;99.90
7212;DHT22;3647;48.792;9.802;2022-08-19T12:46:01;20.10;99.90
7212;DHT22;3647;48.792;9.802;2022-08-19T12:48:29;20.10;99.90
7212;DHT22;3647;48.792;9.802;2022-08-19T12:50:58;20.00;99.90
7212;DHT22;3647;48.792;9.802;2022-08-19T12:53:24;20.00;99.90
7212;DHT22;3647;48.792;9.802;2022-08-19T12:55:55;20.00;99.90
7212;DHT22;3647;48.792;9.802;2022-08-19T12:58:22;20.00;99.90
7212;DHT22;3647;48.792;9.802;2022-08-19T13:00:49;20.00;99.90
7212;DHT22;3647;48.792;9.802;2022-08-19T13:03:16;20.10;99.90
7212;DHT22;3647;48.792;9.802;2022-08-19T13:05:43;20.10;99.90
7212;DHT22;3647;48.792;9.802;2022-08-19T13:08:11;20.00;99.90
7212;DHT22;3647;48.792;9.802;2022-08-19T13:10:38;20.00;99.90
7212;DHT22;3647;48.792;9.802;2022-08-19T13:13:07;20.00;99.90
7212;DHT22;3647;48.792;9.802;2022-08-19T13:15:36;20.00;99.90
7212;DHT22;3647;48.792;9.802;2022-08-19T13:18:05;19.90;99.90
7212;DHT22;3647;48.792;9.802;2022-08-19T13:20:32;19.80;99.90
7212;DHT22;3647;48.792;9.802;2022-08-19T13:22:59;19.90;99.90
7212;DHT22;3647;48.792;9.802;2022-08-19T13:25:27;19.90;99.90
7212;DHT22;3647;48.792;9.802;2022-08-19T13:27:54;19.80;99.90
7212;DHT22;3647;48.792;9.802;2022-08-19T13:30:21;19.80;99.90
7212;DHT22;3647;48.792;9.802;2022-08-19T13:33:07;19.80;99.90
7212;DHT22;3647;48.792;9.802;2022-08-19T13:35:37;19.70;99.90
7212;DHT22;3647;48.792;9.802;2022-08-19T13:38:04;21.40;99.90
7212;DHT22;3647;48.792;9.802;2022-08-19T13:40:33;19.80;99.90
7212;DHT22;3647;48.792;9.802;2022-08-19T13:43:01;19.80;99.90
7212;DHT22;3647;48.792;9.802;2022-08-19T13:45:30;19.70;99.90
7212;DHT22;3647;48.792;9.802;2022-08-19T13:47:58;19.80;99.90
7212;DHT22;3647;48.792;9.802;2022-08-19T13:50:26;19.80;99.90
7212;DHT22;3647;48.792;9.802;2022-08-19T13:52:54;19.80;99.90
7212;DHT22;3647;48.792;9.802;2022-08-19T13:55:22;19.80;99.90
7212;DHT22;3647;48.792;9.802;2022-08-19T13:57:51;19.80;99.90
7212;DHT22;3647;48.792;9.802;2022-08-19T14:00:19;19.80;99.90
7212;DHT22;3647;48.792;9.802;2022-08-19T14:02:49;19.80;99.90
7212;DHT22;3647;48.792;9.802;2022-08-19T14:05:16;19.70;99.90
7212;DHT22;3647;48.792;9.802;2022-08-19T14:07:44;19.80;99.90
7212;DHT22;3647;48.792;9.802;2022-08-19T14:10:12;19.80;99.90
7212;DHT22;3647;48.792;9.802;2022-08-19T14:12:39;19.90;99.90
7212;DHT22;3647;48.792;9.802;2022-08-19T14:15:10;20.00;99.90
7212;DHT22;3647;48.792;9.802;2022-08-19T14:17:37;20.00;99.90
7212;DHT22;3647;48.792;9.802;2022-08-19T14:20:06;20.10;99.90
7212;DHT22;3647;48.792;9.802;2022-08-19T14:22:35;20.10;99.90
7212;DHT22;3647;48.792;9.802;2022-08-19T14:25:03;20.10;99.90
7212;DHT22;3647;48.792;9.802;2022-08-19T14:27:32;20.10;99.90
7212;DHT22;3647;48.792;9.802;2022-08-19T14:29:59;20.10;99.90
7212;DHT22;3647;48.792;9.802;2022-08-19T14:32:27;20.20;99.90
7212;DHT22;3647;48.792;9.802;2022-08-19T14:34:54;20.20;99.90
7212;DHT22;3647;48.792;9.802;2022-08-19T14:37:21;20.30;99.90
7212;DHT22;3647;48.792;9.802;2022-08-19T14:39:48;20.30;99.90
7212;DHT22;3647;48.792;9.802;2022-08-19T14:42:15;20.30;99.90
7212;DHT22;3647;48.792;9.802;2022-08-19T14:44:42;20.30;99.90
7212;DHT22;3647;48.792;9.802;2022-08-19T14:47:10;20.30;99.90
7212;DHT22;3647;48.792;9.802;2022-08-19T14:49:38;20.40;99.90
7212;DHT22;3647;48.792;9.802;2022-08-19T14:52:06;20.50;99.90
7212;DHT22;3647;48.792;9.802;2022-08-19T14:54:33;20.50;99.90
7212;DHT22;3647;48.792;9.802;2022-08-19T14:57:01;20.40;99.90
7212;DHT22;3647;48.792;9.802;2022-08-19T14:59:28;20.40;99.90
7212;DHT22;3647;48.792;9.802;2022-08-19T15:01:55;20.40;99.90
7212;DHT22;3647;48.792;9.802;2022-08-19T15:04:21;20.40;99.90
7212;DHT22;3647;48.792;9.802;2022-08-19T15:06:50;20.40;99.90
7212;DHT22;3647;48.792;9.802;2022-08-19T15:09:17;20.40;99.90
7212;DHT22;3647;48.792;9.802;2022-08-19T15:11:44;20.40;99.90
7212;DHT22;3647;48.792;9.802;2022-08-19T15:14:11;20.50;99.90
7212;DHT22;3647;48.792;9.802;2022-08-19T15:16:39;20.50;99.90
7212;DHT22;3647;48.792;9.802;2022-08-19T15:19:07;20.50;99.90
7212;DHT22;3647;48.792;9.802;2022-08-19T15:21:35;20.50;99.90
7212;DHT22;3647;48.792;9.802;2022-08-19T15:24:04;20.60;99.90
7212;DHT22;3647;48.792;9.802;2022-08-19T15:26:31;20.60;99.90
7212;DHT22;3647;48.792;9.802;2022-08-19T15:28:59;20.70;99.90
7212;DHT22;3647;48.792;9.802;2022-08-19T15:31:26;20.80;99.90
7212;DHT22;3647;48.792;9.802;2022-08-19T15:33:54;20.70;99.90
7212;DHT22;3647;48.792;9.802;2022-08-19T15:36:22;20.70;99.90
7212;DHT22;3647;48.792;9.802;2022-08-19T15:38:50;20.60;99.90
7212;DHT22;3647;48.792;9.802;2022-08-19T15:41:21;20.60;99.90
7212;DHT22;3647;48.792;9.802;2022-08-19T15:43:53;20.50;99.90
7212;DHT22;3647;48.792;9.802;2022-08-19T15:46:22;20.50;99.90
7212;DHT22;3647;48.792;9.802;2022-08-19T15:48:50;20.50;99.90
7212;DHT22;3647;48.792;9.802;2022-08-19T15:51:18;20.50;99.90
7212;DHT22;3647;48.792;9.802;2022-08-19T15:53:45;20.40;99.90
7212;DHT22;3647;48.792;9.802;2022-08-19T15:56:12;20.30;99.90
7212;DHT22;3647;48.792;9.802;2022-08-19T15:58:41;20.40;99.90
7212;DHT22;3647;48.792;9.802;2022-08-19T16:01:25;20.40;99.90
7212;DHT22;3647;48.792;9.802;2022-08-19T16:04:10;20.40;99.90
7212;DHT22;3647;48.792;9.802;2022-08-19T16:06:56;20.40;99.90
7212;DHT22;3647;48.792;9.802;2022-08-19T16:09:26;20.50;99.90
7212;DHT22;3647;48.792;9.802;2022-08-19T16:11:55;20.50;99.90